OETR

Details ICAO OETR (TUI)
Name TURAIF
Region Saudi Arabia
Timezone Asia/Riyadh (UTC+3.0)
Plans Departing 4
Arriving 4
Stats Elevation 2,803 ft / 854 m (AMSL)
Location 31.692682° 38.731266°
Runways 1
Magnetic Variation 4.620° E
Sunrise 2017-12-18 04:20:32 UTC / 2017-12-18 07:20:32 Local
Sunset 2017-12-18 14:25:27 UTC / 2017-12-18 17:25:27 Local
Advertisement - Login to hide

Runways

ID Width Length Bearing (true) Bearing (mag) Surface Threshold Offset Overrun Length
10 148 ft / 45 m 9,828 ft / 2,996 m 105.47° 100.85° Asphalt 0 ft / 0 m 185 ft / 56 m
28 148 ft / 45 m 9,828 ft / 2,996 m 285.48° 280.86° Asphalt 0 ft / 0 m 185 ft / 56 m

Map

Weather


0- 5 10 15 20 25 30 35+ Temperature / ° C

Clouds and Precipitation
Forecast for 2017-12-18 12:00 UTC. Updated 2 hours ago

Ground ~20,000 ft ~40,000 ft Winds

METAR

OETR 181000Z 19010KT CAVOK 20/M02 Q1023 NOSIG

TAF

TAF OETR 172300Z 1800/1906 11005G15KT 6000 FEW040 SCT100

Frequencies

Unicom 122.80 MHz CTAF
Tower 131.50 MHz SAUDIA RDO
Warning: Do not use this data for real-world aviation or navigation. No guarantee of current accuracy is given.